createdAt,value
2022-11-20T00:00:54.149Z,95677.13
2022-11-20T00:03:23.336Z,95667.44
2022-11-20T00:05:51.297Z,95660.94
2022-11-20T00:08:18.831Z,95661.28
2022-11-20T00:10:46.518Z,95662.56
2022-11-20T00:13:14.075Z,95647.16
2022-11-20T00:15:41.640Z,95647.63
2022-11-20T00:18:09.196Z,95654.81
2022-11-20T00:20:38.118Z,95658.56
2022-11-20T00:23:06.820Z,95659.03
2022-11-20T00:25:35.815Z,95647.13
2022-11-20T00:28:03.385Z,95651.03
2022-11-20T00:30:30.962Z,95645.66
2022-11-20T00:32:59.061Z,95656.00
2022-11-20T00:35:26.659Z,95653.66
2022-11-20T00:37:55.602Z,95654.34
2022-11-20T00:40:23.141Z,95657.41
2022-11-20T00:42:50.702Z,95657.41
2022-11-20T00:45:18.271Z,95657.97
2022-11-20T00:47:46.163Z,95656.28
2022-11-20T00:50:13.764Z,95658.25
2022-11-20T00:52:41.588Z,95651.84
2022-11-20T00:55:10.680Z,95653.78
2022-11-20T00:57:38.234Z,95653.66
2022-11-20T01:00:07.137Z,95655.19
2022-11-20T01:02:34.732Z,95658.91
2022-11-20T01:05:02.275Z,95657.81
2022-11-20T01:07:29.892Z,95661.53
2022-11-20T01:09:57.466Z,95658.56
2022-11-20T01:12:26.408Z,95667.44
2022-11-20T01:14:53.974Z,95662.56
2022-11-20T01:17:21.510Z,95666.97
2022-11-20T01:19:50.837Z,95669.91
2022-11-20T01:22:18.395Z,95655.50
2022-11-20T01:24:45.965Z,95663.34
2022-11-20T01:27:13.501Z,95664.50
2022-11-20T01:29:42.462Z,95666.56
2022-11-20T01:32:10.024Z,95661.25
2022-11-20T01:34:37.566Z,95660.81
2022-11-20T01:37:05.110Z,95654.94
2022-11-20T01:39:32.666Z,95660.41
2022-11-20T01:42:18.066Z,95667.28
2022-11-20T01:44:53.095Z,95664.50
2022-11-20T01:47:27.419Z,95661.09
2022-11-20T01:50:00.997Z,95660.03
2022-11-20T01:52:34.614Z,95649.13
2022-11-20T01:55:07.186Z,95657.66
2022-11-20T01:57:37.206Z,95654.06
2022-11-20T02:00:11.427Z,95651.56
2022-11-20T02:02:41.225Z,95659.88
2022-11-20T02:05:16.572Z,95654.06
2022-11-20T02:07:45.086Z,95652.94
2022-11-20T02:10:13.506Z,95639.41
2022-11-20T02:12:58.994Z,95652.69
2022-11-20T02:15:30.402Z,95653.69
2022-11-20T02:17:59.578Z,95646.75
2022-11-20T02:20:27.920Z,95644.81
2022-11-20T02:22:59.806Z,95648.25
2022-11-20T02:25:30.892Z,95658.47
2022-11-20T02:27:58.720Z,95648.50
2022-11-20T02:30:26.483Z,95652.69
2022-11-20T02:32:54.191Z,95645.50
2022-11-20T02:35:42.985Z,95642.41
2022-11-20T02:38:10.747Z,95649.38
2022-11-20T02:40:39.692Z,95640.81
2022-11-20T02:43:07.291Z,95643.03
2022-11-20T02:45:34.904Z,95642.63
2022-11-20T02:48:02.643Z,95636.53
2022-11-20T02:50:30.222Z,95635.28
2022-11-20T02:52:57.773Z,95633.88
2022-11-20T02:55:25.384Z,95631.81
2022-11-20T02:57:54.243Z,95634.44
2022-11-20T03:00:21.937Z,95631.97
2022-11-20T03:02:49.495Z,95635.97
2022-11-20T03:05:17.107Z,95637.50
2022-11-20T03:07:45.564Z,95640.41
2022-11-20T03:10:16.293Z,95633.50
2022-11-20T03:12:43.860Z,95623.41
2022-11-20T03:15:12.980Z,95624.94
2022-11-20T03:17:40.511Z,95627.84
2022-11-20T03:20:09.992Z,95627.00
2022-11-20T03:22:37.543Z,95622.69
2022-11-20T03:25:05.918Z,95620.06
2022-11-20T03:27:35.982Z,95620.91
2022-11-20T03:30:03.651Z,95628.94
2022-11-20T03:32:32.631Z,95621.84
2022-11-20T03:35:01.564Z,95627.91
2022-11-20T03:37:29.148Z,95622.53
2022-11-20T03:39:56.746Z,95631.81
2022-11-20T03:42:41.816Z,95631.63
2022-11-20T03:45:10.230Z,95632.84
2022-11-20T03:47:39.225Z,95637.69
2022-11-20T03:50:07.495Z,95634.63
2022-11-20T03:52:35.117Z,95635.22
2022-11-20T03:55:02.854Z,95630.66
2022-11-20T03:57:30.400Z,95632.00
2022-11-20T03:59:57.974Z,95635.91
2022-11-20T04:02:25.571Z,95629.38
2022-11-20T04:04:55.744Z,95628.81
2022-11-20T04:07:23.329Z,95626.22
2022-11-20T04:09:50.914Z,95619.44
2022-11-20T04:12:18.457Z,95634.72
2022-11-20T04:14:46.018Z,95622.81
2022-11-20T04:17:13.578Z,95618.75
2022-11-20T04:19:41.185Z,95618.59
2022-11-20T04:22:12.402Z,95620.66
2022-11-20T04:24:39.983Z,95617.72
2022-11-20T04:27:07.560Z,95621.59
2022-11-20T04:29:35.123Z,95626.50
2022-11-20T04:32:02.703Z,95628.13
2022-11-20T04:34:30.272Z,95618.97
2022-11-20T04:36:57.822Z,95607.00
2022-11-20T04:39:26.743Z,95613.09
2022-11-20T04:42:14.304Z,95603.28
2022-11-20T04:44:41.893Z,95601.50
2022-11-20T04:47:09.466Z,95602.69
2022-11-20T04:49:40.041Z,95614.00
2022-11-20T04:52:07.610Z,95614.38
2022-11-20T04:54:36.513Z,95613.31
2022-11-20T04:57:04.387Z,95611.53
2022-11-20T04:59:31.913Z,95608.91
2022-11-20T05:01:59.523Z,95605.31
2022-11-20T05:04:27.112Z,95601.50
2022-11-20T05:06:54.657Z,95603.78
2022-11-20T05:09:22.528Z,95606.47
2022-11-20T05:11:51.822Z,95608.75
2022-11-20T05:14:19.417Z,95601.00
2022-11-20T05:16:47.059Z,95596.84
2022-11-20T05:19:14.836Z,95598.84
2022-11-20T05:21:42.359Z,95597.41
2022-11-20T05:24:10.052Z,95594.69
2022-11-20T05:26:37.591Z,95605.13
2022-11-20T05:29:06.457Z,95597.38
2022-11-20T05:31:34.029Z,95597.91
2022-11-20T05:34:01.543Z,95609.56
2022-11-20T05:36:29.074Z,95604.06
2022-11-20T05:39:01.200Z,95597.63
2022-11-20T05:41:29.565Z,95615.34
2022-11-20T05:43:58.798Z,95602.25
2022-11-20T05:46:29.235Z,95601.97
2022-11-20T05:48:57.887Z,95607.72
2022-11-20T05:51:26.857Z,95611.72
2022-11-20T05:53:54.624Z,95610.19
2022-11-20T05:56:23.424Z,95605.63
2022-11-20T05:58:51.501Z,95600.41
2022-11-20T06:01:21.314Z,95606.66
2022-11-20T06:03:51.599Z,95603.56
2022-11-20T06:06:20.873Z,95601.00
2022-11-20T06:08:49.191Z,95605.78
2022-11-20T06:11:17.541Z,95589.84
2022-11-20T06:13:45.738Z,95595.38
2022-11-20T06:16:15.113Z,95593.47
2022-11-20T06:18:42.875Z,95595.69
2022-11-20T06:21:14.779Z,95596.53
2022-11-20T06:23:43.103Z,95591.34
2022-11-20T06:26:12.681Z,95601.00
2022-11-20T06:28:40.669Z,95608.97
2022-11-20T06:31:09.790Z,95605.78
2022-11-20T06:33:37.942Z,95604.19
2022-11-20T06:36:10.580Z,95609.66
2022-11-20T06:38:41.069Z,95599.56
2022-11-20T06:41:09.450Z,95599.97
2022-11-20T06:43:36.982Z,95598.09
2022-11-20T06:46:04.634Z,95605.19
2022-11-20T06:48:32.285Z,95606.56
2022-11-20T06:50:59.948Z,95601.59
2022-11-20T06:53:27.691Z,95604.94
2022-11-20T06:55:59.574Z,95603.56
2022-11-20T06:58:29.358Z,95608.03
2022-11-20T07:01:00.836Z,95603.22
2022-11-20T07:03:28.776Z,95607.00
2022-11-20T07:05:57.159Z,95609.94
2022-11-20T07:08:25.878Z,95618.19
2022-11-20T07:10:53.695Z,95619.03
2022-11-20T07:13:22.599Z,95622.75
2022-11-20T07:15:50.119Z,95627.66
2022-11-20T07:18:17.699Z,95624.75
2022-11-20T07:20:45.238Z,95627.78
2022-11-20T07:23:12.782Z,95628.09
2022-11-20T07:25:40.299Z,95628.69
2022-11-20T07:28:07.831Z,95631.00
2022-11-20T07:30:36.698Z,95634.75
2022-11-20T07:33:04.224Z,95628.13
2022-11-20T07:35:31.707Z,95630.88
2022-11-20T07:37:59.210Z,95630.84
2022-11-20T07:40:26.727Z,95636.06
2022-11-20T07:42:55.646Z,95631.41
2022-11-20T07:45:25.189Z,95630.56
2022-11-20T07:47:54.045Z,95626.19
2022-11-20T07:50:22.943Z,95629.91
2022-11-20T07:52:50.618Z,95636.94
2022-11-20T07:55:18.488Z,95644.16
2022-11-20T07:57:46.061Z,95631.38
2022-11-20T08:00:14.967Z,95629.84
2022-11-20T08:02:42.977Z,95627.84
2022-11-20T08:05:12.166Z,95629.38
2022-11-20T08:07:40.534Z,95636.00
2022-11-20T08:10:10.056Z,95629.84
2022-11-20T08:12:55.371Z,95629.94
2022-11-20T08:15:23.063Z,95628.19
2022-11-20T08:18:15.278Z,95627.84
2022-11-20T08:20:40.093Z,95635.69
2022-11-20T08:23:09.326Z,95631.81
2022-11-20T08:25:38.267Z,95628.19
2022-11-20T08:28:18.339Z,95633.66
2022-11-20T08:30:47.589Z,95634.09
2022-11-20T08:33:15.155Z,95644.00
2022-11-20T08:35:43.982Z,95641.69
2022-11-20T08:38:11.561Z,95636.41
2022-11-20T08:40:39.062Z,95643.28
2022-11-20T08:43:06.616Z,95638.44
2022-11-20T08:45:35.436Z,95648.97
2022-11-20T08:48:04.573Z,95642.53
2022-11-20T08:50:33.032Z,95646.06
2022-11-20T08:53:05.714Z,95647.09
2022-11-20T08:55:33.397Z,95646.41
2022-11-20T08:58:05.441Z,95646.81
2022-11-20T09:00:33.456Z,95647.44
2022-11-20T09:03:01.976Z,95643.59
2022-11-20T09:05:30.617Z,95646.38
2022-11-20T09:07:58.499Z,95642.91
2022-11-20T09:10:27.386Z,95647.00
2022-11-20T09:12:55.989Z,95644.34
2022-11-20T09:15:23.899Z,95640.41
2022-11-20T09:17:54.962Z,95650.22
2022-11-20T09:20:22.929Z,95637.66
2022-11-20T09:22:50.508Z,95646.06
2022-11-20T09:25:18.487Z,95642.25
2022-11-20T09:27:47.417Z,95644.47
2022-11-20T09:30:16.521Z,95639.19
2022-11-20T09:32:44.701Z,95639.19
2022-11-20T09:35:12.722Z,95640.59
2022-11-20T09:37:40.465Z,95632.69
2022-11-20T09:40:19.270Z,95629.59
2022-11-20T09:42:53.647Z,95629.88
2022-11-20T09:45:26.712Z,95626.44
2022-11-20T09:48:17.915Z,95633.25
2022-11-20T09:50:50.382Z,95635.84
2022-11-20T09:53:25.766Z,95631.88
2022-11-20T09:55:53.527Z,95635.41
2022-11-20T09:58:33.495Z,95636.50
2022-11-20T10:01:11.086Z,95641.56
2022-11-20T10:03:45.078Z,95639.75
2022-11-20T10:06:17.501Z,95626.41
2022-11-20T10:08:50.978Z,95632.91
2022-11-20T10:11:25.175Z,95629.66
2022-11-20T10:14:03.141Z,95624.72
2022-11-20T10:16:41.545Z,95631.19
2022-11-20T10:19:23.971Z,95630.66
2022-11-20T10:22:01.674Z,95615.34
2022-11-20T10:24:45.428Z,95620.34
2022-11-20T10:27:36.559Z,95617.03
2022-11-20T10:30:10.925Z,95613.88
2022-11-20T10:32:40.896Z,95609.66
2022-11-20T10:35:20.114Z,95611.97
2022-11-20T10:37:52.853Z,95603.84
2022-11-20T10:40:28.384Z,95609.06
2022-11-20T10:42:58.396Z,95599.53
2022-11-20T10:45:47.532Z,95604.31
2022-11-20T10:48:19.131Z,95603.41
2022-11-20T10:50:56.691Z,95603.72
2022-11-20T10:53:47.469Z,95602.13
2022-11-20T10:56:22.313Z,95616.94
2022-11-20T10:59:00.603Z,95618.91
2022-11-20T11:01:29.539Z,95611.31
2022-11-20T11:03:58.112Z,95622.31
2022-11-20T11:06:33.998Z,95614.69
2022-11-20T11:09:06.054Z,95609.97
2022-11-20T11:11:35.636Z,95601.09
2022-11-20T11:14:07.260Z,95594.59
2022-11-20T11:16:36.668Z,95600.88
2022-11-20T11:19:08.302Z,95593.63
2022-11-20T11:21:37.650Z,95598.38
2022-11-20T11:24:34.667Z,95594.06
2022-11-20T11:26:59.946Z,95589.75
2022-11-20T11:29:30.355Z,95592.66
2022-11-20T11:32:07.710Z,95589.47
2022-11-20T11:34:36.688Z,95587.44
2022-11-20T11:37:05.197Z,95572.25
2022-11-20T11:39:35.129Z,95588.97
2022-11-20T11:42:03.209Z,95577.25
2022-11-20T11:44:51.210Z,95575.63
2022-11-20T11:47:26.143Z,95578.06
2022-11-20T11:50:03.314Z,95585.53
2022-11-20T11:52:33.113Z,95578.25
2022-11-20T11:55:09.900Z,95574.72
2022-11-20T11:57:47.670Z,95571.44
2022-11-20T12:00:17.404Z,95577.31
2022-11-20T12:02:56.119Z,95580.09
2022-11-20T12:05:27.253Z,95575.03
2022-11-20T12:07:59.740Z,95570.75
2022-11-20T12:10:42.259Z,95569.41
2022-11-20T12:13:20.139Z,95569.13
2022-11-20T12:15:49.439Z,95568.50
2022-11-20T12:18:21.647Z,95568.44
2022-11-20T12:20:59.822Z,95570.75
2022-11-20T12:23:37.455Z,95560.47
2022-11-20T12:26:15.946Z,95571.34
2022-11-20T12:29:00.933Z,95560.59
2022-11-20T12:31:53.189Z,95559.59
2022-11-20T12:34:35.764Z,95561.66
2022-11-20T12:37:11.042Z,95563.41
2022-11-20T12:39:43.404Z,95559.13
2022-11-20T12:42:48.261Z,95560.00
2022-11-20T12:45:52.947Z,95557.97
2022-11-20T12:48:35.510Z,95565.72
2022-11-20T12:51:27.651Z,95557.16
2022-11-20T12:54:08.816Z,95556.31
2022-11-20T12:56:44.083Z,95555.06
2022-11-20T12:59:26.946Z,95545.13
2022-11-20T13:02:00.447Z,95551.38
2022-11-20T13:04:46.424Z,95558.00
2022-11-20T13:07:18.071Z,95547.94
2022-11-20T13:09:47.846Z,95549.78
2022-11-20T13:12:21.742Z,95540.50
2022-11-20T13:14:55.412Z,95538.78
2022-11-20T13:17:30.350Z,95532.91
2022-11-20T13:20:00.315Z,95535.16
2022-11-20T13:22:30.746Z,95539.59
2022-11-20T13:24:58.248Z,95528.25
2022-11-20T13:27:26.460Z,95535.66
2022-11-20T13:30:15.815Z,95545.19
2022-11-20T13:32:50.964Z,95538.81
2022-11-20T13:35:27.696Z,95545.06
2022-11-20T13:38:05.324Z,95542.69
2022-11-20T13:40:33.353Z,95550.31
2022-11-20T13:43:13.226Z,95563.84
2022-11-20T13:45:40.715Z,95564.28
2022-11-20T13:48:28.191Z,95561.66
2022-11-20T13:51:06.221Z,95570.22
2022-11-20T13:53:50.015Z,95559.56
2022-11-20T13:56:26.508Z,95576.19
2022-11-20T13:59:05.446Z,95560.69
2022-11-20T14:01:35.567Z,95562.63
2022-11-20T14:04:09.644Z,95556.22
2022-11-20T14:06:43.511Z,95558.44
2022-11-20T14:09:15.767Z,95559.22
2022-11-20T14:11:48.726Z,95555.09
2022-11-20T14:14:19.945Z,95557.50
2022-11-20T14:16:48.209Z,95549.19
2022-11-20T14:19:27.910Z,95556.50
2022-11-20T14:22:09.806Z,95571.50
2022-11-20T14:24:38.833Z,95561.38
2022-11-20T14:27:06.421Z,95561.72
2022-11-20T14:29:38.201Z,95556.91
2022-11-20T14:32:06.415Z,95556.44
2022-11-20T14:34:39.161Z,95554.63
2022-11-20T14:37:13.759Z,95543.31
2022-11-20T14:39:52.651Z,95530.69
2022-11-20T14:42:22.152Z,95528.81
2022-11-20T14:44:51.303Z,95526.69
2022-11-20T14:47:22.142Z,95523.94
2022-11-20T14:49:50.771Z,95513.69
2022-11-20T14:52:20.222Z,95514.69
2022-11-20T14:54:50.774Z,95505.63
2022-11-20T14:57:27.267Z,95507.91
2022-11-20T15:00:10.634Z,95508.22
2022-11-20T15:02:42.998Z,95497.34
2022-11-20T15:05:11.121Z,95505.31
2022-11-20T15:07:41.059Z,95506.97
2022-11-20T15:10:12.265Z,95508.75
2022-11-20T15:12:42.587Z,95510.19
2022-11-20T15:15:13.949Z,95535.00
2022-11-20T15:17:43.118Z,95539.50
2022-11-20T15:20:15.388Z,95540.41
2022-11-20T15:22:43.267Z,95555.81
2022-11-20T15:25:16.370Z,95576.31
2022-11-20T15:27:44.506Z,95588.06
2022-11-20T15:30:16.051Z,95577.53
2022-11-20T15:32:43.974Z,95576.97
2022-11-20T15:35:11.917Z,95593.28
2022-11-20T15:37:39.696Z,95588.44
2022-11-20T15:40:08.964Z,95591.38
2022-11-20T15:42:37.826Z,95588.84
2022-11-20T15:45:05.966Z,95570.94
2022-11-20T15:47:35.867Z,95566.66
2022-11-20T15:50:03.816Z,95559.91
2022-11-20T15:52:40.344Z,95573.69
2022-11-20T15:55:11.506Z,95581.97
2022-11-20T15:57:40.341Z,95572.72
2022-11-20T16:00:09.604Z,95567.91
2022-11-20T16:02:37.099Z,95565.41
2022-11-20T16:05:05.296Z,95576.44
2022-11-20T16:07:32.840Z,95584.88
2022-11-20T16:10:00.351Z,95583.47
2022-11-20T16:12:48.127Z,95586.91
2022-11-20T16:15:34.669Z,95580.88
2022-11-20T16:18:02.175Z,95576.44
2022-11-20T16:20:30.303Z,95575.09
2022-11-20T16:22:57.801Z,95568.09
2022-11-20T16:25:25.299Z,95564.38
2022-11-20T16:27:52.811Z,95575.50
2022-11-20T16:30:21.688Z,95552.34
2022-11-20T16:32:49.194Z,95569.25
2022-11-20T16:35:16.772Z,95570.66
2022-11-20T16:37:44.889Z,95553.47
2022-11-20T16:40:13.344Z,95546.63
2022-11-20T16:42:40.838Z,95536.22
2022-11-20T16:45:09.066Z,95555.81
2022-11-20T16:47:38.085Z,95547.56
2022-11-20T16:50:06.732Z,95541.22
2022-11-20T16:52:34.719Z,95546.75
2022-11-20T16:55:02.395Z,95548.41
2022-11-20T16:57:30.722Z,95548.34
2022-11-20T17:00:02.108Z,95537.91
2022-11-20T17:02:30.114Z,95535.00
2022-11-20T17:04:58.955Z,95532.00
2022-11-20T17:07:26.512Z,95535.09
2022-11-20T17:09:54.065Z,95534.41
2022-11-20T17:12:21.549Z,95540.50
2022-11-20T17:14:49.081Z,95548.47
2022-11-20T17:17:16.573Z,95542.03
2022-11-20T17:19:44.061Z,95531.41
2022-11-20T17:22:12.885Z,95527.31
2022-11-20T17:24:40.394Z,95523.28
2022-11-20T17:27:10.823Z,95520.00
2022-11-20T17:29:42.080Z,95521.53
2022-11-20T17:32:09.913Z,95515.72
2022-11-20T17:34:37.476Z,95513.75
2022-11-20T17:37:05.014Z,95512.13
2022-11-20T17:39:33.896Z,95512.47
2022-11-20T17:42:19.022Z,95512.94
2022-11-20T17:44:47.330Z,95514.34
2022-11-20T17:47:14.876Z,95521.25
2022-11-20T17:49:42.366Z,95514.09
2022-11-20T17:52:09.881Z,95510.72
2022-11-20T17:54:38.752Z,95497.41
2022-11-20T17:57:24.872Z,95510.63
2022-11-20T17:59:52.456Z,95505.78
2022-11-20T18:02:20.016Z,95503.72
2022-11-20T18:04:47.520Z,95498.69
2022-11-20T18:07:15.040Z,95498.47
2022-11-20T18:09:43.919Z,95498.25
2022-11-20T18:12:11.417Z,95490.47
2022-11-20T18:14:38.987Z,95495.06
2022-11-20T18:17:08.407Z,95491.59
2022-11-20T18:19:42.713Z,95485.88
2022-11-20T18:22:16.754Z,95483.84
2022-11-20T18:24:46.181Z,95492.41
2022-11-20T18:27:17.344Z,95481.41
2022-11-20T18:29:46.656Z,95481.28
2022-11-20T18:32:14.216Z,95480.88
2022-11-20T18:34:41.751Z,95482.72
2022-11-20T18:37:09.761Z,95475.69
2022-11-20T18:39:37.386Z,95479.56
2022-11-20T18:42:23.595Z,95474.50
2022-11-20T18:44:54.897Z,95466.75
2022-11-20T18:47:24.564Z,95475.56
2022-11-20T18:49:53.591Z,95461.13
2022-11-20T18:52:22.987Z,95443.03
2022-11-20T18:54:51.071Z,95445.34
2022-11-20T18:57:20.568Z,95445.88
2022-11-20T18:59:48.151Z,95446.41
2022-11-20T19:02:18.427Z,95445.78
2022-11-20T19:04:46.350Z,95449.09
2022-11-20T19:07:14.465Z,95454.06
2022-11-20T19:09:43.296Z,95445.41
2022-11-20T19:12:12.837Z,95449.84
2022-11-20T19:14:41.746Z,95442.94
2022-11-20T19:17:10.913Z,95453.00
2022-11-20T19:19:38.457Z,95454.22
2022-11-20T19:22:06.051Z,95450.16
2022-11-20T19:24:33.852Z,95441.25
2022-11-20T19:27:01.757Z,95445.56
2022-11-20T19:29:29.805Z,95441.66
2022-11-20T19:32:00.461Z,95435.03
2022-11-20T19:34:27.977Z,95427.44
2022-11-20T19:36:55.496Z,95428.78
2022-11-20T19:39:23.516Z,95430.78
2022-11-20T19:41:51.250Z,95431.53
2022-11-20T19:44:19.325Z,95424.91
2022-11-20T19:46:46.875Z,95425.97
2022-11-20T19:49:15.853Z,95433.09
2022-11-20T19:51:47.053Z,95424.59
2022-11-20T19:54:14.616Z,95421.91
2022-11-20T19:56:42.298Z,95424.22
2022-11-20T19:59:09.965Z,95427.59
2022-11-20T20:01:37.631Z,95427.03
2022-11-20T20:04:06.622Z,95425.59
2022-11-20T20:06:38.176Z,95425.19
2022-11-20T20:09:07.873Z,95413.34
2022-11-20T20:11:36.337Z,95406.66
2022-11-20T20:14:05.577Z,95403.72
2022-11-20T20:16:34.320Z,95402.34
2022-11-20T20:19:03.789Z,95388.13
2022-11-20T20:21:32.436Z,95389.94
2022-11-20T20:24:01.631Z,95384.00
2022-11-20T20:26:30.927Z,95386.69
2022-11-20T20:28:58.519Z,95381.66
2022-11-20T20:31:28.975Z,95378.69
2022-11-20T20:33:57.397Z,95379.50
2022-11-20T20:36:25.935Z,95377.25
2022-11-20T20:38:54.208Z,95371.47
2022-11-20T20:41:25.036Z,95375.91
2022-11-20T20:44:10.633Z,95379.00
2022-11-20T20:46:38.157Z,95374.00
2022-11-20T20:49:06.163Z,95363.25
2022-11-20T20:51:33.991Z,95369.44
2022-11-20T20:54:01.570Z,95364.00
2022-11-20T20:56:30.491Z,95360.22
2022-11-20T20:58:58.004Z,95361.47
2022-11-20T21:01:28.509Z,95354.22
2022-11-20T21:03:56.630Z,95358.47
2022-11-20T21:06:24.397Z,95352.66
2022-11-20T21:08:52.350Z,95338.19
2022-11-20T21:11:21.210Z,95348.81
2022-11-20T21:13:50.755Z,95340.97
2022-11-20T21:16:20.503Z,95344.59
2022-11-20T21:18:48.210Z,95342.63
2022-11-20T21:21:34.672Z,95351.28
2022-11-20T21:24:02.766Z,95349.72
2022-11-20T21:26:30.653Z,95344.00
2022-11-20T21:28:59.557Z,95343.16
2022-11-20T21:31:28.636Z,95342.41
2022-11-20T21:33:58.052Z,95337.44
2022-11-20T21:36:27.472Z,95341.28
2022-11-20T21:38:56.388Z,95342.94
2022-11-20T21:41:24.847Z,95333.78
2022-11-20T21:44:23.468Z,95328.47
2022-11-20T21:46:43.041Z,95333.59
2022-11-20T21:49:11.508Z,95333.81
2022-11-20T21:51:39.048Z,95334.31
2022-11-20T21:54:06.662Z,95345.53
2022-11-20T21:56:34.185Z,95353.47
2022-11-20T21:59:01.678Z,95352.69
2022-11-20T22:01:31.030Z,95356.22
2022-11-20T22:04:01.991Z,95350.53
2022-11-20T22:06:33.325Z,95356.69
2022-11-20T22:09:01.309Z,95349.84
2022-11-20T22:11:28.828Z,95354.06
2022-11-20T22:14:14.281Z,95346.19
2022-11-20T22:16:41.901Z,95349.63
2022-11-20T22:19:10.989Z,95342.59
2022-11-20T22:21:40.410Z,95344.81
2022-11-20T22:24:08.227Z,95338.94
2022-11-20T22:26:40.350Z,95335.63
2022-11-20T22:29:09.245Z,95336.22
2022-11-20T22:31:36.863Z,95325.16
2022-11-20T22:34:04.399Z,95322.94
2022-11-20T22:36:33.391Z,95329.41
2022-11-20T22:39:03.330Z,95322.09
2022-11-20T22:41:31.921Z,95315.22
2022-11-20T22:44:00.499Z,95325.91
2022-11-20T22:46:29.339Z,95319.38
2022-11-20T22:48:58.607Z,95312.47
2022-11-20T22:51:28.243Z,95316.66
2022-11-20T22:53:57.185Z,95317.97
2022-11-20T22:56:25.298Z,95312.03
2022-11-20T22:58:54.732Z,95319.38
2022-11-20T23:01:24.481Z,95308.72
2022-11-20T23:03:54.090Z,95303.81
2022-11-20T23:06:22.585Z,95309.84
2022-11-20T23:08:51.072Z,95296.88
2022-11-20T23:11:21.978Z,95292.31
2022-11-20T23:13:53.720Z,95291.78
2022-11-20T23:16:21.282Z,95300.09
2022-11-20T23:18:48.958Z,95298.16
2022-11-20T23:21:18.689Z,95288.75
2022-11-20T23:23:49.646Z,95278.59
2022-11-20T23:26:18.483Z,95270.22
2022-11-20T23:28:47.974Z,95290.31
2022-11-20T23:31:16.527Z,95288.97
2022-11-20T23:33:45.868Z,95280.41
2022-11-20T23:36:13.917Z,95277.66
2022-11-20T23:38:42.014Z,95279.66
2022-11-20T23:41:10.131Z,95273.91
2022-11-20T23:43:37.634Z,95266.69
2022-11-20T23:46:07.203Z,95286.81
2022-11-20T23:48:36.369Z,95279.13
2022-11-20T23:51:04.913Z,95280.28
2022-11-20T23:53:32.734Z,95275.31
2022-11-20T23:56:02.631Z,95274.41
2022-11-20T23:58:32.578Z,95278.56
